Time;durP1;ratioP1;P1;durP2;ratioP2;P2;SDS_P1;SDS_P2;PMS_P1;PMS_P2;Temp;Humidity;BMP_temperature;BMP_pressure;BME280_temperature;BME280_humidity;BME280_pressure;Samples;Min_cycle;Max_cycle;Signal;HPM_P1;HPM_P2
2022/10/27 00:00:40;;;;;;;25.40;18.63;;;11.10;99.90;;;;;;5045542;28;20189;-48
2022/10/27 00:03:05;;;;;;;20.93;18.00;;;11.10;99.90;;;;;;5049933;28;20425;-48
2022/10/27 00:05:32;;;;;;;21.10;17.20;;;11.00;99.90;;;;;;5043978;28;20472;-47
2022/10/27 00:07:58;;;;;;;21.17;17.03;;;11.00;99.90;;;;;;5045285;28;20269;-49
2022/10/27 00:10:23;;;;;;;27.83;18.50;;;11.00;99.90;;;;;;5030687;28;20535;-49
2022/10/27 00:12:49;;;;;;;25.87;19.80;;;11.10;99.90;;;;;;5034495;28;20217;-50
2022/10/27 00:15:14;;;;;;;24.13;18.20;;;11.00;99.90;;;;;;5029222;28;20194;-48
2022/10/27 00:17:40;;;;;;;23.93;19.27;;;11.00;99.90;;;;;;5039298;28;20268;-50
2022/10/27 00:20:07;;;;;;;22.50;17.40;;;11.00;99.90;;;;;;5045517;28;20726;-49
2022/10/27 00:22:32;;;;;;;24.10;18.13;;;11.00;99.90;;;;;;5049613;28;20182;-53
2022/10/27 00:24:58;;;;;;;24.40;18.90;;;11.00;99.90;;;;;;5032652;28;20468;-49
2022/10/27 00:27:24;;;;;;;21.73;18.83;;;11.00;99.90;;;;;;5049462;28;20424;-49
2022/10/27 00:29:49;;;;;;;25.53;18.57;;;11.00;99.90;;;;;;5034914;28;20641;-50
2022/10/27 00:32:15;;;;;;;26.23;19.60;;;11.10;99.90;;;;;;5049328;28;20181;-53
2022/10/27 00:34:41;;;;;;;25.27;19.47;;;11.20;99.90;;;;;;5045114;28;20292;-52
2022/10/27 00:37:07;;;;;;;28.77;18.40;;;11.30;99.90;;;;;;5040143;28;20448;-50
2022/10/27 00:39:32;;;;;;;20.97;17.83;;;11.40;99.90;;;;;;5033001;28;20198;-49
2022/10/27 00:41:58;;;;;;;24.50;19.10;;;11.40;99.90;;;;;;5039146;28;20589;-53
2022/10/27 00:44:33;;;;;;;20.43;18.00;;;11.50;99.90;;;;;;5019951;28;20207;-48
2022/10/27 00:47:10;;;;;;;27.07;18.87;;;11.50;99.90;;;;;;5027641;28;20676;-52
2022/10/27 00:49:56;;;;;;;21.70;17.97;;;11.60;99.90;;;;;;5045777;28;20930;-45
2022/10/27 00:52:40;;;;;;;22.70;17.37;;;11.70;99.90;;;;;;5046093;28;20930;-52
2022/10/27 00:55:13;;;;;;;25.83;16.33;;;11.80;99.90;;;;;;5041118;28;20464;-49
2022/10/27 00:57:40;;;;;;;19.80;17.20;;;11.80;99.90;;;;;;5040987;28;20497;-50
2022/10/27 01:00:06;;;;;;;22.60;16.20;;;11.80;99.90;;;;;;5037549;28;20522;-52
2022/10/27 01:02:33;;;;;;;21.53;17.13;;;11.90;99.90;;;;;;5043913;28;20527;-52
2022/10/27 01:05:07;;;;;;;19.80;17.13;;;12.00;99.90;;;;;;5048571;28;20513;-51
2022/10/27 01:07:34;;;;;;;25.07;17.20;;;12.00;99.90;;;;;;5043622;28;20554;-48
2022/10/27 01:10:00;;;;;;;18.50;16.17;;;12.10;99.90;;;;;;5030209;28;20468;-51
2022/10/27 01:12:25;;;;;;;22.90;16.80;;;12.10;99.90;;;;;;5033548;28;20428;-49
2022/10/27 01:14:51;;;;;;;17.70;15.80;;;12.20;99.90;;;;;;5042249;28;20183;-48
2022/10/27 01:17:33;;;;;;;18.07;15.30;;;12.20;99.90;;;;;;5046911;28;20199;-50
2022/10/27 01:20:21;;;;;;;17.90;15.40;;;12.20;99.90;;;;;;5036609;28;20216;-48
2022/10/27 01:23:10;;;;;;;17.70;15.80;;;12.20;99.90;;;;;;5041152;28;20898;-51
2022/10/27 01:25:54;;;;;;;20.03;16.43;;;12.30;99.90;;;;;;5019268;28;20474;-47
2022/10/27 01:28:45;;;;;;;18.80;14.80;;;12.30;99.90;;;;;;5030184;28;20451;-49
2022/10/27 01:31:18;;;;;;;19.20;14.90;;;12.40;99.90;;;;;;5044369;28;20433;-50
2022/10/27 01:34:00;;;;;;;30.43;16.30;;;12.30;99.90;;;;;;5042335;28;20441;-52
2022/10/27 01:36:41;;;;;;;18.90;14.90;;;12.30;99.90;;;;;;5042520;28;20445;-50
2022/10/27 01:39:32;;;;;;;16.50;14.80;;;12.40;99.90;;;;;;5039290;28;21096;-53
2022/10/27 01:42:30;;;;;;;17.70;15.53;;;12.40;99.90;;;;;;5016981;28;20887;-45
2022/10/27 01:44:58;;;;;;;18.47;15.97;;;12.40;99.90;;;;;;5043193;28;20553;-49
2022/10/27 01:47:25;;;;;;;20.50;16.60;;;12.40;99.90;;;;;;5029190;28;20459;-50
2022/10/27 01:49:53;;;;;;;21.33;15.37;;;12.30;99.90;;;;;;5048346;28;20417;-55
2022/10/27 01:52:36;;;;;;;17.53;15.63;;;12.30;99.90;;;;;;5040084;28;20450;-52
2022/10/27 01:55:03;;;;;;;20.40;15.47;;;12.30;99.90;;;;;;5043009;28;20539;-49
2022/10/27 01:57:42;;;;;;;22.70;16.00;;;12.20;99.90;;;;;;5032904;28;20455;-49
2022/10/27 02:00:09;;;;;;;16.73;14.93;;;12.00;99.90;;;;;;5041266;28;20448;-51
2022/10/27 02:02:53;;;;;;;20.97;15.63;;;12.00;99.90;;;;;;5049936;28;20507;-53
2022/10/27 02:06:06;;;;;;;20.30;15.40;;;11.90;99.90;;;;;;5050152;28;20472;-48
2022/10/27 02:08:48;;;;;;;20.13;16.20;;;11.80;99.90;;;;;;5010182;28;20452;-51
2022/10/27 02:11:14;;;;;;;20.93;16.20;;;11.70;99.90;;;;;;5031840;28;20769;-48
2022/10/27 02:13:43;;;;;;;24.13;17.33;;;11.70;99.90;;;;;;5034180;28;20501;-49
2022/10/27 02:16:13;;;;;;;19.73;16.40;;;11.60;99.90;;;;;;5043140;28;20194;-51
2022/10/27 02:18:45;;;;;;;20.70;16.33;;;11.60;99.90;;;;;;5042622;28;20935;-52
2022/10/27 02:21:12;;;;;;;20.60;15.43;;;11.50;99.90;;;;;;5043233;28;21014;-52
2022/10/27 02:23:38;;;;;;;19.33;16.07;;;11.40;99.90;;;;;;5046836;28;20921;-50
2022/10/27 02:26:12;;;;;;;20.13;15.60;;;11.30;99.90;;;;;;5043352;28;20550;-48
2022/10/27 02:28:49;;;;;;;21.47;16.53;;;11.30;99.90;;;;;;5022960;28;20483;-49
2022/10/27 02:31:18;;;;;;;24.30;16.93;;;11.20;99.90;;;;;;5040504;28;20444;-52
2022/10/27 02:33:44;;;;;;;19.70;16.60;;;11.10;99.90;;;;;;5047268;28;21088;-51
2022/10/27 02:36:09;;;;;;;22.37;16.53;;;11.10;99.90;;;;;;5044509;28;20507;-49
2022/10/27 02:38:35;;;;;;;21.40;16.87;;;11.10;99.90;;;;;;5034328;28;20198;-52
2022/10/27 02:41:01;;;;;;;20.57;17.17;;;11.00;99.90;;;;;;5044582;28;20190;-48
2022/10/27 02:43:26;;;;;;;22.73;17.60;;;11.00;99.90;;;;;;5038876;28;20674;-47
2022/10/27 02:45:52;;;;;;;23.60;17.90;;;11.00;99.90;;;;;;5051208;28;20254;-52
2022/10/27 02:48:18;;;;;;;19.87;16.80;;;11.00;99.90;;;;;;5029049;28;20206;-53
2022/10/27 02:50:43;;;;;;;21.30;17.33;;;10.90;99.90;;;;;;5043580;28;20954;-50
2022/10/27 02:53:09;;;;;;;21.07;16.50;;;10.90;99.90;;;;;;5040081;28;20194;-50
2022/10/27 02:55:34;;;;;;;21.50;16.80;;;10.80;99.90;;;;;;5048617;28;20190;-48
2022/10/27 02:58:00;;;;;;;23.80;16.83;;;10.80;99.90;;;;;;5050164;28;20226;-49
2022/10/27 03:00:25;;;;;;;21.70;17.40;;;10.80;99.90;;;;;;5042918;28;20196;-49
2022/10/27 03:02:51;;;;;;;24.50;17.10;;;10.80;99.90;;;;;;5036410;28;20242;-48
2022/10/27 03:05:16;;;;;;;19.47;16.50;;;10.70;99.90;;;;;;5050860;28;20558;-49
2022/10/27 03:07:42;;;;;;;21.07;16.97;;;10.70;99.90;;;;;;5036262;28;20208;-49
2022/10/27 03:10:08;;;;;;;21.73;16.97;;;10.70;99.90;;;;;;5031309;28;20202;-49
2022/10/27 03:12:34;;;;;;;22.83;16.83;;;10.60;99.90;;;;;;5036606;28;20535;-51
2022/10/27 03:14:59;;;;;;;20.10;15.63;;;10.60;99.90;;;;;;5042398;28;20186;-53
2022/10/27 03:17:25;;;;;;;19.37;16.73;;;10.50;99.90;;;;;;5037084;28;20646;-50
2022/10/27 03:19:50;;;;;;;21.47;16.03;;;10.50;99.90;;;;;;5039922;28;20183;-51
2022/10/27 03:22:16;;;;;;;23.50;16.90;;;10.40;99.90;;;;;;5046878;28;20275;-52
2022/10/27 03:24:41;;;;;;;21.73;17.70;;;10.40;99.90;;;;;;5046659;28;20226;-54
2022/10/27 03:27:07;;;;;;;25.10;17.80;;;10.40;99.90;;;;;;5039934;28;20193;-49
2022/10/27 03:29:32;;;;;;;23.80;18.90;;;10.30;99.90;;;;;;5044989;28;20201;-52
2022/10/27 03:31:58;;;;;;;23.07;17.60;;;10.30;99.90;;;;;;5049412;28;20186;-54
2022/10/27 03:34:24;;;;;;;22.23;17.40;;;10.30;99.90;;;;;;5047227;28;20239;-50
2022/10/27 03:36:49;;;;;;;22.60;17.50;;;10.30;99.90;;;;;;5035564;28;20182;-48
2022/10/27 03:39:15;;;;;;;22.27;17.80;;;10.20;99.90;;;;;;5037436;28;20278;-50
2022/10/27 03:41:40;;;;;;;25.57;19.43;;;10.20;99.90;;;;;;5037184;28;20185;-48
2022/10/27 03:44:06;;;;;;;26.00;19.60;;;10.20;99.90;;;;;;5050194;28;20236;-49
2022/10/27 03:46:31;;;;;;;25.63;19.23;;;10.20;99.90;;;;;;5031780;28;20293;-49
2022/10/27 03:48:57;;;;;;;23.03;18.30;;;10.20;99.90;;;;;;5028763;28;20195;-49
2022/10/27 03:51:22;;;;;;;21.97;17.57;;;10.20;99.90;;;;;;5046756;28;20197;-50
2022/10/27 03:53:48;;;;;;;20.67;16.73;;;10.20;99.90;;;;;;5050363;28;20281;-51
2022/10/27 03:56:13;;;;;;;22.70;17.03;;;10.20;99.90;;;;;;5040598;28;20204;-52
2022/10/27 03:58:39;;;;;;;20.40;17.00;;;10.10;99.90;;;;;;5025675;28;20187;-51
2022/10/27 04:01:05;;;;;;;21.07;16.20;;;10.10;99.90;;;;;;5047019;28;20238;-55
2022/10/27 04:03:31;;;;;;;22.77;18.20;;;10.00;99.90;;;;;;5037243;28;20202;-48
2022/10/27 04:05:57;;;;;;;23.47;17.53;;;10.00;99.90;;;;;;5046188;28;20529;-50
2022/10/27 04:08:23;;;;;;;20.30;16.30;;;10.00;99.90;;;;;;5040081;28;20469;-52
2022/10/27 04:10:49;;;;;;;20.37;16.10;;;10.00;99.90;;;;;;5029864;28;20477;-49
2022/10/27 04:13:14;;;;;;;25.30;16.83;;;9.90;99.90;;;;;;5029070;28;20287;-51
2022/10/27 04:15:40;;;;;;;21.70;16.70;;;9.90;99.90;;;;;;5029607;28;20673;-49
2022/10/27 04:18:06;;;;;;;22.77;17.83;;;9.90;99.90;;;;;;5036776;28;20209;-50
2022/10/27 04:20:31;;;;;;;21.97;17.47;;;10.00;99.90;;;;;;5047645;28;20218;-50
2022/10/27 04:22:58;;;;;;;22.20;17.10;;;10.00;99.90;;;;;;5046490;28;20209;-53
2022/10/27 04:25:24;;;;;;;23.20;17.47;;;10.00;99.90;;;;;;5049508;28;20224;-51
2022/10/27 04:27:50;;;;;;;25.63;17.00;;;10.00;99.90;;;;;;5047736;28;20423;-51
2022/10/27 04:30:16;;;;;;;23.50;17.27;;;10.00;99.90;;;;;;5040060;28;20985;-53
2022/10/27 04:32:41;;;;;;;31.20;19.93;;;10.10;99.90;;;;;;5049244;28;20672;-47
2022/10/27 04:35:08;;;;;;;22.27;18.53;;;10.10;99.90;;;;;;5038925;28;20476;-53
2022/10/27 04:37:34;;;;;;;23.20;17.93;;;10.10;99.90;;;;;;5047816;28;20579;-51
2022/10/27 04:40:00;;;;;;;22.50;17.53;;;10.10;99.90;;;;;;5036053;28;20487;-50
2022/10/27 04:42:25;;;;;;;24.30;17.80;;;10.10;99.90;;;;;;5027983;28;20452;-50
2022/10/27 04:44:51;;;;;;;25.50;17.70;;;10.10;99.90;;;;;;5035757;28;20464;-52
2022/10/27 04:47:16;;;;;;;25.17;18.83;;;10.10;99.90;;;;;;5034222;28;20195;-50
2022/10/27 04:49:42;;;;;;;22.47;17.73;;;10.10;99.90;;;;;;5035124;28;20193;-45
2022/10/27 04:52:07;;;;;;;28.90;18.93;;;10.10;99.90;;;;;;5036039;28;20544;-50
2022/10/27 04:54:33;;;;;;;26.80;18.67;;;10.10;99.90;;;;;;5030453;28;20818;-48
2022/10/27 04:56:59;;;;;;;23.47;17.87;;;10.10;99.90;;;;;;5036756;28;20190;-49
2022/10/27 04:59:24;;;;;;;25.57;18.60;;;10.10;99.90;;;;;;5042309;28;20240;-46
2022/10/27 05:01:50;;;;;;;26.57;18.80;;;10.10;99.90;;;;;;5033285;28;20581;-48
2022/10/27 05:04:15;;;;;;;21.47;17.00;;;10.10;99.90;;;;;;5026502;28;20194;-49
2022/10/27 05:06:41;;;;;;;24.27;17.90;;;10.10;99.90;;;;;;5032510;28;20323;-52
2022/10/27 05:09:06;;;;;;;26.83;18.47;;;10.00;99.90;;;;;;5036172;28;20289;-50
2022/10/27 05:11:32;;;;;;;25.50;18.27;;;10.00;99.90;;;;;;5022510;28;20530;-51
2022/10/27 05:13:57;;;;;;;26.43;19.40;;;10.00;99.90;;;;;;5041171;28;20186;-51
2022/10/27 05:16:23;;;;;;;28.20;20.17;;;10.10;99.90;;;;;;5036841;28;20259;-49
2022/10/27 05:18:49;;;;;;;27.63;19.30;;;10.10;99.90;;;;;;5037654;28;20276;-51
2022/10/27 05:21:14;;;;;;;25.90;18.37;;;10.10;99.90;;;;;;5037021;28;20194;-53
2022/10/27 05:23:40;;;;;;;25.77;18.43;;;10.10;99.90;;;;;;5023102;28;20585;-51
2022/10/27 05:26:06;;;;;;;26.80;18.37;;;10.10;99.90;;;;;;5030814;28;20216;-52
2022/10/27 05:28:31;;;;;;;26.80;19.87;;;10.10;99.90;;;;;;5035803;28;20272;-50
2022/10/27 05:30:58;;;;;;;25.90;20.70;;;10.10;99.90;;;;;;5037378;28;20723;-52
2022/10/27 05:33:25;;;;;;;25.40;20.50;;;10.10;99.90;;;;;;5032802;28;20220;-49
2022/10/27 05:35:51;;;;;;;27.03;19.97;;;10.10;99.90;;;;;;5032204;28;21049;-53
2022/10/27 05:38:17;;;;;;;28.43;20.87;;;10.20;99.90;;;;;;5026248;28;20510;-52
2022/10/27 05:40:42;;;;;;;26.27;20.00;;;10.20;99.90;;;;;;5030367;28;20227;-49
2022/10/27 05:43:09;;;;;;;28.43;20.27;;;10.20;99.90;;;;;;5032999;28;20800;-54
2022/10/27 05:45:35;;;;;;;25.13;20.13;;;10.10;99.90;;;;;;5033572;28;20578;-53
2022/10/27 05:48:06;;;;;;;24.27;19.73;;;10.10;99.90;;;;;;5038732;28;20421;-52
2022/10/27 05:50:32;;;;;;;25.87;20.30;;;10.10;99.90;;;;;;5032582;28;20437;-50
2022/10/27 05:52:58;;;;;;;28.60;20.67;;;10.00;99.90;;;;;;5033395;28;20474;-49
2022/10/27 05:55:23;;;;;;;30.23;22.10;;;10.10;99.90;;;;;;5046782;28;20913;-48
2022/10/27 05:57:58;;;;;;;33.23;23.27;;;10.10;99.90;;;;;;5048103;28;20312;-48
2022/10/27 06:00:25;;;;;;;30.27;22.43;;;10.10;99.90;;;;;;5035310;28;20186;-48
2022/10/27 06:02:51;;;;;;;33.57;22.90;;;10.10;99.90;;;;;;5046748;28;20937;-54
2022/10/27 06:05:16;;;;;;;29.30;23.23;;;10.10;99.90;;;;;;5041182;28;20481;-51
2022/10/27 06:07:42;;;;;;;30.30;20.63;;;10.10;99.90;;;;;;5037934;28;20725;-54
2022/10/27 06:10:08;;;;;;;34.97;22.17;;;10.10;99.90;;;;;;5019203;28;20625;-51
2022/10/27 06:12:33;;;;;;;29.47;22.30;;;10.10;99.90;;;;;;5034755;28;20527;-51
2022/10/27 06:14:59;;;;;;;32.30;22.70;;;10.10;99.90;;;;;;5048037;28;20198;-50
2022/10/27 06:17:25;;;;;;;31.47;24.00;;;10.10;99.90;;;;;;5048008;28;20194;-54
2022/10/27 06:19:50;;;;;;;33.63;24.00;;;10.10;99.90;;;;;;5044232;28;20644;-52
2022/10/27 06:22:16;;;;;;;31.80;23.10;;;10.20;99.90;;;;;;5048035;28;20545;-50
2022/10/27 06:24:41;;;;;;;40.03;26.40;;;10.20;99.90;;;;;;5047899;28;20273;-53
2022/10/27 06:27:07;;;;;;;36.93;26.07;;;10.20;99.90;;;;;;5048128;28;20210;-51
2022/10/27 06:29:32;;;;;;;33.30;25.20;;;10.20;99.90;;;;;;5047994;28;20193;-52
2022/10/27 06:31:58;;;;;;;40.20;26.77;;;10.30;99.90;;;;;;5047699;28;20186;-50
2022/10/27 06:34:23;;;;;;;35.40;25.90;;;10.30;99.90;;;;;;5047797;28;20237;-51
2022/10/27 06:36:49;;;;;;;36.63;26.20;;;10.20;99.90;;;;;;5027938;28;20198;-51
2022/10/27 06:39:14;;;;;;;39.70;28.57;;;10.20;99.90;;;;;;5040838;28;20300;-56
2022/10/27 06:41:40;;;;;;;40.03;27.80;;;10.30;99.90;;;;;;5048180;28;20217;-53
2022/10/27 06:44:05;;;;;;;38.63;26.70;;;10.30;99.90;;;;;;5028455;28;20194;-52
2022/10/27 06:46:33;;;;;;;39.63;27.83;;;10.30;99.90;;;;;;5026354;28;20219;-52
2022/10/27 06:48:59;;;;;;;37.00;26.57;;;10.30;99.90;;;;;;5029746;28;20595;-52
2022/10/27 06:51:25;;;;;;;35.93;27.20;;;10.30;99.90;;;;;;5049988;28;20907;-50
2022/10/27 06:53:51;;;;;;;43.70;28.67;;;10.30;99.90;;;;;;5051315;28;20431;-52
2022/10/27 06:56:17;;;;;;;39.30;28.67;;;10.30;99.90;;;;;;5051209;28;20201;-54
2022/10/27 06:58:43;;;;;;;38.37;27.37;;;10.40;99.90;;;;;;5051149;28;20185;-53
2022/10/27 07:01:09;;;;;;;43.80;29.50;;;10.40;99.90;;;;;;5051299;28;20432;-52
2022/10/27 07:03:36;;;;;;;39.17;29.00;;;10.50;99.90;;;;;;5049294;28;20197;-52
2022/10/27 07:06:02;;;;;;;39.17;29.13;;;10.50;99.90;;;;;;5049230;28;20205;-54
2022/10/27 07:08:28;;;;;;;39.90;28.90;;;10.60;99.90;;;;;;5046286;28;20758;-48
2022/10/27 07:10:54;;;;;;;40.20;27.73;;;10.60;99.90;;;;;;5031239;28;20190;-51
2022/10/27 07:13:19;;;;;;;38.00;29.00;;;10.70;99.90;;;;;;5030776;28;20213;-53
2022/10/27 07:15:45;;;;;;;41.47;27.80;;;10.80;99.90;;;;;;5044367;28;20448;-49
2022/10/27 07:18:10;;;;;;;37.70;27.77;;;10.80;99.90;;;;;;5047213;28;20182;-47
2022/10/27 07:20:39;;;;;;;38.53;27.60;;;10.90;99.90;;;;;;5043672;28;20221;-50
2022/10/27 07:23:06;;;;;;;34.17;26.60;;;11.00;99.90;;;;;;5050611;28;20218;-51
2022/10/27 07:25:33;;;;;;;34.57;27.13;;;11.00;99.90;;;;;;5040773;28;20900;-52
2022/10/27 07:28:00;;;;;;;36.30;26.93;;;11.20;99.90;;;;;;5028336;28;20444;-52
2022/10/27 07:30:28;;;;;;;34.63;26.73;;;11.30;99.90;;;;;;5044495;28;20493;-49
2022/10/27 07:32:53;;;;;;;32.87;26.53;;;11.40;99.90;;;;;;5050504;28;20826;-46
2022/10/27 07:35:20;;;;;;;36.13;27.77;;;11.50;99.90;;;;;;5050163;28;20506;-51
2022/10/27 07:37:46;;;;;;;34.87;27.03;;;11.60;99.90;;;;;;5050596;28;20433;-49
2022/10/27 07:40:14;;;;;;;35.30;25.40;;;11.80;99.90;;;;;;5050322;28;20531;-48
2022/10/27 07:42:55;;;;;;;29.43;24.57;;;12.10;99.90;;;;;;5042811;28;20433;-49
2022/10/27 07:45:23;;;;;;;29.77;24.37;;;12.40;99.90;;;;;;5047024;28;20861;-51
2022/10/27 07:47:51;;;;;;;27.67;22.67;;;12.90;99.90;;;;;;5050346;28;21132;-48
2022/10/27 07:50:18;;;;;;;23.63;21.03;;;13.40;99.90;;;;;;5050294;28;20444;-49
2022/10/27 07:52:45;;;;;;;19.57;17.50;;;13.90;99.90;;;;;;5049181;28;20451;-52
2022/10/27 07:55:13;;;;;;;18.50;15.80;;;14.40;99.90;;;;;;5028884;28;20936;-49
2022/10/27 07:57:39;;;;;;;15.93;14.37;;;15.20;99.90;;;;;;5040830;28;20424;-48
2022/10/27 08:00:08;;;;;;;16.80;15.13;;;15.60;99.90;;;;;;5049696;28;20897;-53
2022/10/27 08:02:33;;;;;;;16.57;14.97;;;16.00;99.90;;;;;;5049819;28;20426;-49
2022/10/27 08:04:59;;;;;;;16.37;14.87;;;16.50;99.90;;;;;;5049547;28;20517;-50
2022/10/27 08:07:25;;;;;;;15.27;13.77;;;16.70;99.90;;;;;;5050112;28;20216;-49
2022/10/27 08:09:50;;;;;;;14.90;13.27;;;17.30;99.90;;;;;;5033579;28;20197;-54
2022/10/27 08:12:16;;;;;;;14.53;13.20;;;17.60;99.90;;;;;;5033370;28;20190;-50
2022/10/27 08:14:42;;;;;;;15.50;14.10;;;17.80;99.90;;;;;;5041289;28;20280;-52
2022/10/27 08:17:08;;;;;;;15.77;14.27;;;18.40;99.90;;;;;;5049610;28;20212;-51
2022/10/27 08:19:33;;;;;;;15.37;14.17;;;18.40;99.90;;;;;;5041971;28;20573;-52
2022/10/27 08:21:59;;;;;;;15.70;14.20;;;19.10;99.90;;;;;;5049491;28;20424;-52
2022/10/27 08:24:24;;;;;;;16.17;14.77;;;19.70;99.90;;;;;;5035812;28;20260;-54
2022/10/27 08:26:50;;;;;;;14.93;13.63;;;20.30;99.90;;;;;;5034220;28;20292;-52
2022/10/27 08:29:15;;;;;;;16.20;14.90;;;20.10;99.90;;;;;;5037731;28;20194;-53
2022/10/27 08:31:41;;;;;;;16.37;14.87;;;20.00;99.90;;;;;;5046424;28;20300;-51
2022/10/27 08:34:07;;;;;;;15.00;13.70;;;19.90;99.90;;;;;;5049093;28;20240;-46
2022/10/27 08:36:37;;;;;;;14.67;13.57;;;20.00;99.90;;;;;;5048844;28;20204;-52
2022/10/27 08:39:04;;;;;;;14.37;13.27;;;20.50;99.90;;;;;;5049095;28;20185;-52
2022/10/27 08:41:44;;;;;;;14.37;13.20;;;20.90;98.90;;;;;;5049256;28;20961;-52
2022/10/27 08:44:43;;;;;;;15.80;14.50;;;21.40;97.10;;;;;;5034863;28;20420;-53
2022/10/27 08:47:19;;;;;;;17.17;15.87;;;22.00;95.60;;;;;;5025880;28;20796;-55
2022/10/27 08:49:50;;;;;;;16.73;15.43;;;22.10;92.80;;;;;;5049086;28;20428;-54
2022/10/27 08:52:37;;;;;;;16.63;15.27;;;22.50;92.00;;;;;;5040983;28;20452;-53
2022/10/27 08:55:11;;;;;;;14.97;13.80;;;23.20;91.00;;;;;;5025169;28;20413;-52
2022/10/27 08:57:39;;;;;;;15.40;14.30;;;23.30;89.20;;;;;;5048948;28;20427;-52
2022/10/27 09:00:09;;;;;;;15.30;14.10;;;23.20;89.10;;;;;;5048688;28;20420;-51
2022/10/27 09:03:02;;;;;;;14.30;13.10;;;23.30;85.70;;;;;;5048639;28;20430;-49
2022/10/27 09:05:39;;;;;;;14.00;13.00;;;23.60;85.50;;;;;;5047908;28;20468;-50
2022/10/27 09:08:20;;;;;;;14.77;13.47;;;23.90;85.20;;;;;;5040305;28;20783;-55
2022/10/27 09:10:48;;;;;;;15.17;13.70;;;23.70;79.70;;;;;;5034593;28;20420;-52
2022/10/27 09:13:46;;;;;;;13.87;12.87;;;23.80;83.40;;;;;;5042719;28;20428;-50
2022/10/27 09:16:27;;;;;;;13.60;12.60;;;24.30;78.80;;;;;;5030495;28;20473;-46
2022/10/27 09:18:57;;;;;;;14.57;13.57;;;24.70;79.00;;;;;;5045687;28;20435;-53
2022/10/27 09:21:24;;;;;;;13.70;12.70;;;25.10;76.20;;;;;;5048369;28;20412;-49
2022/10/27 09:23:52;;;;;;;14.47;13.27;;;25.60;74.00;;;;;;5048443;28;21278;-51
2022/10/27 09:26:22;;;;;;;15.17;14.10;;;25.60;72.90;;;;;;5045788;28;20574;-53
2022/10/27 09:28:53;;;;;;;14.03;13.10;;;25.30;71.70;;;;;;5048630;28;20428;-50
2022/10/27 09:31:39;;;;;;;13.90;12.80;;;25.40;72.40;;;;;;5048819;28;20428;-52
2022/10/27 09:34:14;;;;;;;14.73;13.63;;;26.60;67.00;;;;;;5048196;28;20490;-50
2022/10/27 09:36:40;;;;;;;14.10;13.00;;;26.70;64.10;;;;;;5036034;28;20452;-52
2022/10/27 09:39:07;;;;;;;14.50;13.40;;;26.50;63.10;;;;;;5041012;28;20497;-54
2022/10/27 09:41:33;;;;;;;13.93;13.00;;;27.40;59.90;;;;;;5048777;28;20208;-51
2022/10/27 09:43:59;;;;;;;14.20;13.00;;;27.90;59.60;;;;;;5048825;28;20825;-53
2022/10/27 09:46:28;;;;;;;14.33;13.27;;;28.10;55.70;;;;;;5048068;28;20213;-50
2022/10/27 09:48:58;;;;;;;14.40;13.40;;;28.00;55.30;;;;;;5048544;28;20504;-52
2022/10/27 09:51:32;;;;;;;14.40;13.40;;;27.50;56.70;;;;;;5048251;28;20429;-54
2022/10/27 09:53:59;;;;;;;14.20;13.20;;;27.90;56.70;;;;;;5048263;28;20865;-53
2022/10/27 09:56:28;;;;;;;14.50;13.47;;;27.90;55.50;;;;;;5047936;28;20424;-49
2022/10/27 09:59:04;;;;;;;14.70;13.70;;;27.80;55.00;;;;;;5048089;28;20412;-50
2022/10/27 10:01:38;;;;;;;13.33;12.33;;;27.30;56.20;;;;;;5048843;28;20499;-56
2022/10/27 10:04:26;;;;;;;14.57;13.57;;;27.50;57.20;;;;;;5040427;28;20457;-56
2022/10/27 10:07:03;;;;;;;14.40;13.27;;;27.70;57.00;;;;;;5027585;28;20477;-53
2022/10/27 10:09:34;;;;;;;13.57;12.43;;;28.20;56.10;;;;;;5028090;28;20462;-48
2022/10/27 10:12:18;;;;;;;13.53;12.63;;;28.80;54.00;;;;;;5044186;28;20420;-49
2022/10/27 10:14:44;;;;;;;13.57;12.67;;;28.80;53.90;;;;;;5029854;28;20446;-49
2022/10/27 10:17:22;;;;;;;13.67;12.70;;;29.10;53.60;;;;;;5046775;28;20420;-53
2022/10/27 10:19:49;;;;;;;13.10;12.20;;;29.90;51.00;;;;;;5048392;28;20432;-51
2022/10/27 10:22:30;;;;;;;13.50;12.50;;;30.20;48.50;;;;;;5052372;28;20851;-49
2022/10/27 10:25:06;;;;;;;13.33;12.23;;;30.00;48.60;;;;;;5051715;28;20479;-50
2022/10/27 10:27:33;;;;;;;12.53;11.63;;;30.20;49.70;;;;;;5052290;28;20415;-51
2022/10/27 10:30:03;;;;;;;13.03;12.23;;;29.90;48.50;;;;;;5040988;28;20420;-52
2022/10/27 10:32:33;;;;;;;13.77;12.73;;;30.40;47.50;;;;;;5051709;28;20490;-53
2022/10/27 10:35:00;;;;;;;11.50;10.80;;;30.90;47.40;;;;;;5048814;28;20480;-52
2022/10/27 10:37:28;;;;;;;12.60;11.80;;;31.10;45.90;;;;;;5031507;28;20519;-53
2022/10/27 10:39:54;;;;;;;13.43;12.33;;;30.80;46.50;;;;;;5049717;28;20426;-53
2022/10/27 10:42:19;;;;;;;12.70;11.70;;;31.20;45.40;;;;;;5051498;28;20415;-53
2022/10/27 10:44:45;;;;;;;13.13;12.13;;;31.00;45.20;;;;;;5051349;28;20190;-50
2022/10/27 10:47:27;;;;;;;13.73;12.73;;;31.70;44.00;;;;;;5051384;28;20182;-53
2022/10/27 10:49:57;;;;;;;12.87;12.00;;;31.10;42.80;;;;;;5051462;28;20864;-53
2022/10/27 10:52:25;;;;;;;12.37;11.60;;;30.70;44.60;;;;;;5051094;28;20458;-55
2022/10/27 10:54:51;;;;;;;13.13;12.30;;;31.00;44.80;;;;;;5051391;28;20427;-53
2022/10/27 10:57:35;;;;;;;13.67;12.60;;;30.40;46.30;;;;;;5051000;28;20416;-53
2022/10/27 11:00:03;;;;;;;13.50;12.60;;;30.50;44.20;;;;;;5050031;28;20189;-52
2022/10/27 11:02:31;;;;;;;13.13;12.03;;;31.60;43.60;;;;;;5049628;28;20429;-53
2022/10/27 11:05:08;;;;;;;13.60;12.33;;;31.50;43.50;;;;;;5035059;28;20500;-53
2022/10/27 11:07:34;;;;;;;12.80;11.80;;;31.50;43.40;;;;;;5040166;28;20483;-52
2022/10/27 11:10:15;;;;;;;14.00;12.90;;;32.10;43.00;;;;;;5036396;28;20441;-55
2022/10/27 11:12:49;;;;;;;12.17;11.47;;;31.40;41.90;;;;;;5041104;28;20189;-53
2022/10/27 11:15:22;;;;;;;12.87;11.87;;;32.40;41.90;;;;;;5036751;28;20925;-49
2022/10/27 11:17:51;;;;;;;12.00;11.10;;;31.70;41.80;;;;;;5050892;28;21001;-54
2022/10/27 11:20:21;;;;;;;11.67;10.93;;;31.10;43.80;;;;;;5038402;28;20455;-54
2022/10/27 11:22:50;;;;;;;11.00;10.20;;;31.40;43.70;;;;;;5050568;28;20507;-54
2022/10/27 11:25:19;;;;;;;11.53;10.70;;;31.20;41.70;;;;;;5050554;28;20639;-55
2022/10/27 11:28:03;;;;;;;11.07;10.37;;;32.00;40.90;;;;;;5050258;28;20450;-54
2022/10/27 11:30:30;;;;;;;11.87;11.17;;;32.10;41.50;;;;;;5050951;28;20416;-54
2022/10/27 11:33:11;;;;;;;11.90;11.03;;;32.20;40.70;;;;;;5036338;28;20438;-50
2022/10/27 11:36:08;;;;;;;12.47;11.77;;;32.30;39.70;;;;;;5043886;28;20551;-55
2022/10/27 11:38:42;;;;;;;11.00;10.20;;;31.80;40.10;;;;;;5050366;28;20447;-53
2022/10/27 11:41:32;;;;;;;12.93;12.03;;;31.70;41.80;;;;;;5050125;28;20869;-51
2022/10/27 11:44:28;;;;;;;11.40;10.70;;;31.80;41.40;;;;;;5050342;28;20417;-52
2022/10/27 11:47:10;;;;;;;13.00;12.20;;;31.60;42.20;;;;;;5046635;28;20913;-51
2022/10/27 11:49:47;;;;;;;11.67;10.70;;;32.30;40.80;;;;;;5041764;28;20437;-54
2022/10/27 11:52:27;;;;;;;10.93;10.20;;;32.50;39.00;;;;;;5029440;28;20461;-53
2022/10/27 11:54:53;;;;;;;11.80;11.00;;;32.10;39.10;;;;;;5040956;28;20408;-55
2022/10/27 11:57:21;;;;;;;11.37;10.57;;;32.00;39.40;;;;;;5050007;28;20417;-54
2022/10/27 12:00:05;;;;;;;11.63;10.93;;;31.90;40.70;;;;;;5030893;28;20443;-54
2022/10/27 12:03:03;;;;;;;10.87;10.07;;;31.40;42.80;;;;;;5036998;28;20531;-55
2022/10/27 12:05:36;;;;;;;10.53;9.70;;;32.00;40.80;;;;;;5034815;28;20983;-53
2022/10/27 12:08:13;;;;;;;10.13;9.43;;;32.70;39.40;;;;;;5040826;28;20858;-55
2022/10/27 12:10:45;;;;;;;10.87;10.10;;;32.10;39.10;;;;;;5036817;28;20902;-53
2022/10/27 12:13:21;;;;;;;10.63;10.03;;;32.70;38.80;;;;;;5044685;28;20413;-54
2022/10/27 12:16:22;;;;;;;10.10;9.57;;;33.00;37.80;;;;;;5038833;28;20420;-56
2022/10/27 12:19:01;;;;;;;9.43;8.70;;;33.40;37.00;;;;;;5018963;28;20992;-55
2022/10/27 12:21:40;;;;;;;10.10;9.10;;;33.20;35.40;;;;;;5040769;28;20419;-55
2022/10/27 12:24:16;;;;;;;8.60;8.20;;;33.30;35.50;;;;;;5049897;28;20412;-56
2022/10/27 12:27:05;;;;;;;8.87;8.47;;;33.00;35.50;;;;;;5043182;28;20460;-54
2022/10/27 12:29:36;;;;;;;8.57;7.90;;;33.20;35.60;;;;;;5043208;28;20506;-56
2022/10/27 12:32:13;;;;;;;9.40;8.73;;;32.60;35.70;;;;;;5049421;28;20914;-54
2022/10/27 12:34:51;;;;;;;9.20;8.60;;;32.90;34.90;;;;;;5049242;28;20463;-52
2022/10/27 12:37:31;;;;;;;8.60;8.13;;;33.10;35.00;;;;;;5049371;28;20428;-54
2022/10/27 12:40:09;;;;;;;8.10;7.60;;;33.00;34.50;;;;;;5048568;28;20973;-54
2022/10/27 12:42:34;;;;;;;9.17;8.60;;;33.20;34.40;;;;;;5049126;28;20522;-47